Time;durP1;ratioP1;P1;durP2;ratioP2;P2;SDS_P1;SDS_P2;PMS_P1;PMS_P2;Temp;Humidity;BMP_temperature;BMP_pressure;BME280_temperature;BME280_humidity;BME280_pressure;Samples;Min_cycle;Max_cycle;Signal;HPM_P1;HPM_P2
2021/11/20 00:00:53;;;;;;;11.53;8.43;;;;;;;9.71;63.75;101993.78;2072414;28;20271;-62
2021/11/20 00:01:56;;;;;;;12.57;9.00;;;;;;;10.23;63.86;102076.16;2072350;28;20420;-62
2021/11/20 00:02:57;;;;;;;12.03;8.20;;;;;;;10.18;63.79;102086.84;2072467;28;20428;-62
2021/11/20 00:03:58;;;;;;;13.83;9.20;;;;;;;10.15;63.74;102073.78;2072090;28;20423;-62
2021/11/20 00:05:00;;;;;;;11.60;8.10;;;;;;;10.16;63.79;102078.13;2072474;28;20508;-61
2021/11/20 00:06:02;;;;;;;14.57;9.30;;;;;;;9.92;64.00;102049.19;2073417;28;20173;-62
2021/11/20 00:07:03;;;;;;;14.27;9.10;;;;;;;10.12;63.76;102074.56;2074211;28;20432;-61
2021/11/20 00:08:06;;;;;;;11.77;8.83;;;;;;;10.11;63.81;102075.75;2073928;28;20456;-61
2021/11/20 00:09:09;;;;;;;12.67;8.97;;;;;;;10.10;64.06;102072.19;2074051;28;20166;-62
2021/11/20 00:10:12;;;;;;;12.67;9.13;;;;;;;10.09;63.90;102073.38;2074264;28;20507;-62
2021/11/20 00:11:16;;;;;;;11.67;8.83;;;;;;;10.02;63.86;102055.94;2079789;28;20486;-62
2021/11/20 00:12:21;;;;;;;11.33;8.03;;;;;;;10.07;63.99;102067.44;2082157;28;20846;-62
2021/11/20 00:13:23;;;;;;;12.47;8.50;;;;;;;10.07;64.06;102066.66;2082092;28;20413;-62
2021/11/20 00:14:25;;;;;;;13.27;8.07;;;;;;;10.06;64.25;102063.09;2081955;28;20407;-62
2021/11/20 00:15:31;;;;;;;9.60;7.67;;;;;;;10.01;63.95;102057.91;2077635;28;20462;-62
2021/11/20 00:16:33;;;;;;;11.30;7.70;;;;;;;10.08;64.12;102052.41;2073991;28;20407;-62
2021/11/20 00:17:33;;;;;;;12.07;8.13;;;;;;;10.03;64.32;102051.97;2074029;28;20424;-62
2021/11/20 00:18:34;;;;;;;10.17;7.77;;;;;;;10.03;64.20;102058.31;2074030;28;20479;-61
2021/11/20 00:19:35;;;;;;;13.30;7.87;;;;;;;9.93;64.17;102045.25;2074505;28;20735;-62
2021/11/20 00:20:45;;;;;;;10.90;7.83;;;;;;;10.00;64.09;102056.31;2082033;28;20834;-62
2021/11/20 00:22:02;;;;;;;10.23;7.87;;;;;;;10.03;64.30;102047.22;2082183;28;20168;-61
2021/11/20 00:23:03;;;;;;;9.23;7.17;;;;;;;9.98;64.22;102053.16;2082200;28;20456;-61
2021/11/20 00:24:12;;;;;;;11.27;7.13;;;;;;;9.89;64.45;102041.66;2080443;28;20434;-61
2021/11/20 00:25:27;;;;;;;12.40;7.23;;;;;;;9.87;64.71;102057.91;2074126;28;20165;-62
2021/11/20 00:26:33;;;;;;;11.70;7.43;;;;;;;9.86;64.80;102055.50;2073738;28;20454;-62
2021/11/20 00:27:36;;;;;;;11.13;7.20;;;;;;;9.84;64.96;102055.13;2073978;28;20401;-62
2021/11/20 00:29:11;;;;;;;11.03;7.80;;;;;;;9.83;65.05;102048.78;2073937;28;20435;-62
2021/11/20 00:31:15;;;;;;;11.13;7.03;;;;;;;9.76;65.18;102043.25;2074069;28;20407;-62
2021/11/20 00:32:21;;;;;;;9.20;7.13;;;;;;;9.80;65.48;102043.25;2073891;28;20809;-61
2021/11/20 00:33:26;;;;;;;11.30;7.90;;;;;;;9.82;65.42;102043.63;2074239;28;20438;-61
2021/11/20 00:34:29;;;;;;;10.27;6.77;;;;;;;9.81;65.12;102053.94;2073224;28;20649;-61
2021/11/20 00:35:34;;;;;;;10.80;7.07;;;;;;;9.78;65.31;102051.94;2073813;28;20454;-61
2021/11/20 00:36:35;;;;;;;9.77;7.07;;;;;;;8.96;65.23;101910.25;2081900;28;20419;-62
2021/11/20 00:37:36;;;;;;;11.47;7.40;;;;;;;9.85;65.26;102048.41;2081272;28;20419;-62
2021/11/20 00:38:38;;;;;;;9.63;6.97;;;;;;;9.84;65.43;102058.66;2081986;28;20298;-62
2021/11/20 00:39:40;;;;;;;9.13;6.87;;;;;;;9.79;65.25;102061.03;2082121;28;20422;-62
2021/11/20 00:40:44;;;;;;;12.57;7.70;;;;;;;9.84;65.57;102052.34;2081808;28;20845;-62
2021/11/20 00:41:46;;;;;;;11.27;7.70;;;;;;;9.83;65.46;102059.06;2082136;28;20399;-61
2021/11/20 00:42:46;;;;;;;11.37;7.30;;;;;;;9.89;65.17;102049.97;2088814;28;20445;-62
2021/11/20 00:43:47;;;;;;;10.57;7.70;;;;;;;9.80;65.27;102062.63;2089657;28;20397;-61
2021/11/20 00:44:48;;;;;;;12.20;7.30;;;;;;;9.78;65.22;102051.16;2081569;28;20180;-62
2021/11/20 00:45:49;;;;;;;10.53;7.30;;;;;;;9.85;65.52;102063.00;2081813;28;20402;-62
2021/11/20 00:46:50;;;;;;;9.77;7.20;;;;;;;9.92;65.02;102065.00;2080899;28;20198;-62
2021/11/20 00:47:51;;;;;;;11.03;7.70;;;;;;;9.95;65.02;102059.47;2081771;28;20731;-62
2021/11/20 00:48:52;;;;;;;10.07;7.30;;;;;;;9.98;64.74;102060.66;2081884;28;20803;-62
2021/11/20 00:49:57;;;;;;;11.40;7.47;;;;;;;9.99;64.85;102060.28;2081759;28;20197;-62
2021/11/20 00:51:02;;;;;;;10.27;7.30;;;;;;;9.91;64.70;102044.06;2081902;28;20430;-61
2021/11/20 00:52:04;;;;;;;12.70;7.60;;;;;;;9.77;64.56;102022.66;2081303;28;20434;-62
2021/11/20 00:53:05;;;;;;;11.97;7.30;;;;;;;10.05;64.45;102047.66;2081855;28;20438;-61
2021/11/20 00:54:06;;;;;;;12.57;7.30;;;;;;;10.01;64.34;102041.31;2081390;28;20806;-61
2021/11/20 00:55:10;;;;;;;11.03;7.40;;;;;;;9.85;64.51;102020.72;2081642;28;20468;-62
2021/11/20 00:56:13;;;;;;;10.50;7.43;;;;;;;10.02;64.24;102042.88;2076351;28;20424;-62
2021/11/20 00:57:14;;;;;;;10.20;7.20;;;;;;;10.02;64.41;102040.09;2073522;28;20414;-61
2021/11/20 00:58:15;;;;;;;11.57;7.33;;;;;;;10.03;64.40;102044.47;2073523;28;20429;-62
2021/11/20 00:59:16;;;;;;;11.43;7.50;;;;;;;9.98;64.22;102039.31;2073816;28;20185;-62
2021/11/20 01:00:20;;;;;;;11.03;7.70;;;;;;;10.05;64.33;102033.03;2073521;28;20735;-61
2021/11/20 01:01:32;;;;;;;9.37;7.07;;;;;;;10.04;64.03;102040.53;2073665;28;20444;-62
2021/11/20 01:02:33;;;;;;;11.60;7.77;;;;;;;10.00;64.29;102025.84;2073734;28;20404;-61
2021/11/20 01:03:34;;;;;;;9.80;7.13;;;;;;;9.56;64.14;101963.72;2073662;28;20419;-62
2021/11/20 01:04:36;;;;;;;11.27;7.43;;;;;;;10.06;64.16;102034.59;2073204;28;20417;-62
2021/11/20 01:05:37;;;;;;;10.67;7.03;;;;;;;10.07;64.02;102028.69;2080448;28;20433;-62
2021/11/20 01:06:40;;;;;;;11.60;6.97;;;;;;;10.10;63.92;102038.16;2081306;28;20912;-62
2021/11/20 01:07:40;;;;;;;10.17;7.50;;;;;;;10.09;63.90;102036.59;2073405;28;20427;-62
2021/11/20 01:08:44;;;;;;;10.90;7.20;;;;;;;10.10;63.92;102030.63;2073619;28;20927;-61
2021/11/20 01:09:45;;;;;;;10.47;7.20;;;;;;;10.09;63.76;102031.81;2073479;28;20788;-61
2021/11/20 01:10:50;;;;;;;11.80;7.87;;;;;;;10.12;63.90;102027.47;2073608;28;20494;-61
2021/11/20 01:12:02;;;;;;;9.80;7.17;;;;;;;10.11;63.89;102020.34;2073489;28;20424;-62
2021/11/20 01:13:05;;;;;;;10.60;7.07;;;;;;;10.12;63.99;102016.41;2073604;28;20857;-62
2021/11/20 01:14:09;;;;;;;9.57;7.30;;;;;;;10.12;63.78;102019.16;2073101;28;20434;-62
2021/11/20 01:15:14;;;;;;;10.10;7.60;;;;;;;10.14;63.65;102020.34;2073652;28;20844;-62
2021/11/20 01:16:15;;;;;;;11.43;7.10;;;;;;;9.55;63.68;101920.63;2073100;28;20454;-62
2021/11/20 01:17:19;;;;;;;11.10;6.90;;;;;;;10.19;63.61;102003.34;2073554;28;20514;-62
2021/11/20 01:18:22;;;;;;;12.57;7.10;;;;;;;10.23;63.48;102011.63;2074576;28;20789;-62
2021/11/20 01:19:25;;;;;;;12.03;7.30;;;;;;;10.13;63.14;102002.16;2081878;28;20944;-62
2021/11/20 01:20:26;;;;;;;10.57;7.03;;;;;;;10.30;63.22;102003.34;2081432;28;20427;-62
2021/11/20 01:21:27;;;;;;;10.63;7.23;;;;;;;9.49;63.15;101872.41;2081740;28;20941;-62
2021/11/20 01:22:28;;;;;;;9.63;7.30;;;;;;;10.32;63.18;102001.75;2081773;28;20572;-62
2021/11/20 01:23:31;;;;;;;10.57;7.57;;;;;;;10.30;63.35;102001.34;2074658;28;20433;-62
2021/11/20 01:24:31;;;;;;;9.70;6.87;;;;;;;10.32;63.30;101996.22;2073066;28;20903;-62
2021/11/20 01:25:33;;;;;;;11.23;7.03;;;;;;;9.82;63.35;101925.38;2073310;28;21018;-62
2021/11/20 01:26:35;;;;;;;10.60;7.23;;;;;;;10.28;63.33;102009.28;2073491;28;20208;-62
2021/11/20 01:27:35;;;;;;;11.20;7.43;;;;;;;10.31;63.34;102002.91;2073363;28;20431;-62
2021/11/20 01:28:39;;;;;;;12.37;7.20;;;;;;;9.91;63.24;101936.84;2073234;28;20515;-62
2021/11/20 01:29:39;;;;;;;9.27;7.03;;;;;;;10.34;63.38;101999.38;2073281;28;20702;-62
2021/11/20 01:30:41;;;;;;;12.03;7.70;;;;;;;10.35;63.35;102002.94;2073362;28;20424;-62
2021/11/20 01:31:45;;;;;;;13.20;7.80;;;;;;;10.01;63.37;101961.00;2073419;28;20192;-62
2021/11/20 01:32:47;;;;;;;11.10;7.83;;;;;;;10.37;63.26;102006.09;2065314;28;20796;-62
2021/11/20 01:33:48;;;;;;;11.63;7.97;;;;;;;10.34;63.66;102006.88;2065312;28;20815;-62
2021/11/20 01:34:49;;;;;;;12.00;7.57;;;;;;;10.38;63.67;102005.69;2064855;28;20822;-61
2021/11/20 01:35:49;;;;;;;10.57;7.23;;;;;;;10.34;63.55;102001.34;2065181;28;20477;-62
2021/11/20 01:36:53;;;;;;;11.77;7.57;;;;;;;9.83;63.46;101915.06;2075439;28;20260;-62
2021/11/20 01:37:54;;;;;;;11.60;7.77;;;;;;;10.42;63.60;102000.94;2081566;28;20185;-62
2021/11/20 01:38:57;;;;;;;10.83;7.27;;;;;;;10.42;63.72;102008.47;2081538;28;20429;-62
2021/11/20 01:39:59;;;;;;;12.93;7.90;;;;;;;10.29;63.70;101994.22;2081684;28;20184;-61
2021/11/20 01:41:01;;;;;;;10.67;6.93;;;;;;;10.40;63.82;102011.63;2080501;28;20425;-61
2021/11/20 01:42:06;;;;;;;10.97;7.37;;;;;;;10.38;63.85;102002.13;2081512;28;20438;-62
2021/11/20 01:43:09;;;;;;;12.03;7.67;;;;;;;10.37;63.91;102011.63;2081657;28;20848;-62
2021/11/20 01:44:13;;;;;;;12.30;7.90;;;;;;;10.38;64.06;102004.91;2081082;28;20433;-62
2021/11/20 01:45:20;;;;;;;12.03;7.53;;;;;;;10.41;63.94;101998.56;2081023;28;20916;-62
2021/11/20 01:46:26;;;;;;;11.07;7.00;;;;;;;10.42;63.74;102005.69;2064906;28;20409;-62
2021/11/20 01:47:51;;;;;;;10.23;7.00;;;;;;;10.41;63.91;102004.13;2064533;28;20410;-62
2021/11/20 01:49:04;;;;;;;12.17;7.60;;;;;;;10.39;63.86;101998.97;2064824;28;20440;-62
2021/11/20 01:50:10;;;;;;;10.87;7.73;;;;;;;10.38;63.76;101988.28;2070298;28;20431;-62
2021/11/20 01:51:29;;;;;;;12.13;7.60;;;;;;;10.41;63.78;101996.56;2081438;28;20401;-62
2021/11/20 01:52:53;;;;;;;11.47;7.33;;;;;;;10.40;64.03;101995.00;2081455;28;20476;-62
2021/11/20 01:54:11;;;;;;;10.77;7.07;;;;;;;10.45;63.94;101991.81;2081163;28;20461;-62
2021/11/20 01:55:41;;;;;;;9.80;7.10;;;;;;;10.42;63.94;101997.38;2080549;28;20566;-61
2021/11/20 01:56:57;;;;;;;10.77;6.97;;;;;;;10.47;63.79;102000.56;2080339;28;20432;-62
2021/11/20 01:58:13;;;;;;;13.20;7.40;;;;;;;10.50;63.53;102002.50;2080840;28;20419;-62
2021/11/20 01:59:13;;;;;;;9.50;6.77;;;;;;;10.52;63.49;101988.25;2074316;28;20440;-62
2021/11/20 02:00:26;;;;;;;10.27;7.23;;;;;;;10.54;63.44;102002.50;2073094;28;20426;-62
2021/11/20 02:01:52;;;;;;;10.00;6.63;;;;;;;10.52;63.38;101989.06;2073324;28;20540;-61
2021/11/20 02:03:16;;;;;;;11.57;6.77;;;;;;;10.53;63.13;101987.88;2072123;28;20565;-62
2021/11/20 02:04:43;;;;;;;10.33;7.13;;;;;;;10.58;63.16;101998.53;2062925;28;20430;-61
2021/11/20 02:06:01;;;;;;;11.67;7.40;;;;;;;10.54;63.03;101997.75;2080509;28;20517;-62
2021/11/20 02:07:22;;;;;;;8.97;6.50;;;;;;;10.61;63.03;101994.97;2081319;28;20874;-62
2021/11/20 02:08:41;;;;;;;11.70;7.27;;;;;;;10.63;62.94;101989.03;2080437;28;20417;-62
2021/11/20 02:09:53;;;;;;;10.60;7.43;;;;;;;10.66;62.82;101991.78;2081400;28;20454;-62
2021/11/20 02:11:02;;;;;;;8.67;6.40;;;;;;;10.72;62.85;101994.94;2081308;28;20400;-62
2021/11/20 02:12:28;;;;;;;11.27;7.40;;;;;;;10.69;62.80;101996.53;2081313;28;20462;-62
2021/11/20 02:13:32;;;;;;;10.73;7.03;;;;;;;10.72;62.63;101998.50;2065151;28;20411;-62
2021/11/20 02:14:32;;;;;;;10.17;6.67;;;;;;;10.77;62.67;101997.31;2070373;28;20432;-62
2021/11/20 02:16:00;;;;;;;10.67;6.97;;;;;;;10.78;62.39;101998.88;2072856;28;20778;-62
2021/11/20 02:17:09;;;;;;;9.80;6.63;;;;;;;10.82;62.42;101992.13;2074356;28;20633;-62
2021/11/20 02:18:13;;;;;;;10.90;7.00;;;;;;;10.85;62.45;101991.34;2081161;28;20407;-62
2021/11/20 02:19:19;;;;;;;9.00;6.13;;;;;;;10.92;61.89;101994.06;2081376;28;20404;-62
2021/11/20 02:20:49;;;;;;;10.63;7.23;;;;;;;10.96;62.07;101991.31;2081236;28;20477;-62
2021/11/20 02:22:07;;;;;;;9.90;6.43;;;;;;;10.97;62.14;101995.66;2075554;28;20436;-62
2021/11/20 02:23:08;;;;;;;9.33;6.47;;;;;;;10.99;61.57;101990.50;2073161;28;20402;-62
2021/11/20 02:24:08;;;;;;;11.13;6.90;;;;;;;10.94;61.63;101988.94;2072684;28;20444;-62
2021/11/20 02:25:11;;;;;;;9.53;6.87;;;;;;;10.93;61.70;101989.31;2073167;28;20158;-62
2021/11/20 02:26:11;;;;;;;10.77;6.93;;;;;;;10.94;61.73;101990.91;2075166;28;20636;-62
2021/11/20 02:27:12;;;;;;;10.00;6.87;;;;;;;10.53;61.72;101934.41;2081185;28;20521;-61
2021/11/20 02:28:13;;;;;;;12.37;6.80;;;;;;;11.01;61.58;101994.44;2080518;28;20173;-62
2021/11/20 02:29:15;;;;;;;8.77;6.20;;;;;;;10.45;61.59;101922.53;2081207;28;20647;-62
2021/11/20 02:30:38;;;;;;;8.43;6.00;;;;;;;10.93;61.70;102000.41;2081204;28;20223;-62
2021/11/20 02:31:45;;;;;;;12.50;7.07;;;;;;;10.82;61.99;102003.22;2080931;28;20561;-61
2021/11/20 02:32:49;;;;;;;10.53;6.43;;;;;;;10.77;62.00;101995.31;2081142;28;20404;-61
2021/11/20 02:33:51;;;;;;;9.23;6.50;;;;;;;10.77;61.95;101997.31;2080998;28;20836;-61
2021/11/20 02:34:52;;;;;;;12.00;7.43;;;;;;;10.76;62.22;101995.72;2080996;28;20427;-62
2021/11/20 02:35:55;;;;;;;9.37;6.87;;;;;;;10.80;62.00;101994.53;2072272;28;20436;-62
2021/11/20 02:36:55;;;;;;;10.17;6.67;;;;;;;10.84;62.05;101994.50;2073137;28;20427;-62
2021/11/20 02:37:57;;;;;;;8.93;6.40;;;;;;;10.79;62.22;101998.50;2073014;28;20420;-62
2021/11/20 02:39:04;;;;;;;9.83;6.43;;;;;;;10.81;62.27;101989.78;2073004;28;20185;-62
2021/11/20 02:40:05;;;;;;;9.53;6.53;;;;;;;10.84;62.24;101995.31;2073291;28;20534;-62
2021/11/20 02:41:08;;;;;;;9.30;6.87;;;;;;;10.87;62.06;101999.25;2073049;28;20431;-62
2021/11/20 02:42:13;;;;;;;9.30;6.73;;;;;;;10.73;62.34;101988.19;2072854;28;20176;-62
2021/11/20 02:43:15;;;;;;;9.77;7.30;;;;;;;10.77;62.23;102006.41;2072961;28;20426;-62
2021/11/20 02:44:18;;;;;;;11.03;6.40;;;;;;;10.33;62.44;101936.03;2072730;28;20816;-62
2021/11/20 02:45:24;;;;;;;9.83;6.23;;;;;;;10.80;62.43;101993.72;2072974;28;20502;-61
2021/11/20 02:46:28;;;;;;;8.90;6.13;;;;;;;10.89;62.29;101994.09;2072756;28;20455;-62
2021/11/20 02:47:37;;;;;;;10.90;6.80;;;;;;;10.90;62.28;101993.69;2073062;28;20436;-62
2021/11/20 02:48:38;;;;;;;10.07;7.00;;;;;;;10.87;62.10;101990.94;2072490;28;20427;-61
2021/11/20 02:49:38;;;;;;;9.43;6.63;;;;;;;10.83;62.45;101996.50;2072917;28;20460;-62
2021/11/20 02:51:01;;;;;;;10.17;6.33;;;;;;;10.84;62.38;101988.97;2072944;28;20426;-61
2021/11/20 02:52:07;;;;;;;9.63;6.00;;;;;;;10.77;62.50;101991.75;2072536;28;20182;-62
2021/11/20 02:53:14;;;;;;;9.57;6.27;;;;;;;10.76;62.61;101985.41;2073149;28;20914;-61
2021/11/20 02:54:22;;;;;;;9.67;6.87;;;;;;;10.80;62.48;101980.66;2072562;28;20416;-62
2021/11/20 02:55:23;;;;;;;10.97;6.57;;;;;;;10.86;62.55;101984.59;2072765;28;20559;-62
2021/11/20 02:56:27;;;;;;;11.20;6.40;;;;;;;10.88;62.52;101989.75;2072579;28;20849;-62
2021/11/20 02:57:31;;;;;;;9.43;6.73;;;;;;;10.88;62.48;101985.00;2072806;28;20409;-62
2021/11/20 02:58:32;;;;;;;11.33;6.47;;;;;;;10.94;62.21;101983.38;2065881;28;20981;-62
2021/11/20 02:59:34;;;;;;;8.53;6.40;;;;;;;10.94;62.52;101988.13;2072961;28;20430;-62
2021/11/20 03:00:35;;;;;;;11.30;7.00;;;;;;;10.96;62.32;101992.09;2072665;28;20514;-62
2021/11/20 03:01:37;;;;;;;8.30;6.60;;;;;;;11.01;62.20;101990.91;2072950;28;20902;-62
2021/11/20 03:02:38;;;;;;;10.50;6.57;;;;;;;11.00;62.19;101994.84;2072757;28;20184;-62
2021/11/20 03:03:39;;;;;;;9.07;6.80;;;;;;;11.04;62.09;101990.88;2072889;28;20424;-62
2021/11/20 03:04:42;;;;;;;8.30;6.27;;;;;;;11.04;62.17;101993.66;2072496;28;20421;-62
2021/11/20 03:05:42;;;;;;;9.87;6.70;;;;;;;11.09;62.03;102000.75;2080113;28;20243;-62
2021/11/20 03:06:43;;;;;;;10.30;6.67;;;;;;;11.10;61.91;102000.34;2081578;28;20478;-62
2021/11/20 03:07:44;;;;;;;9.40;6.33;;;;;;;10.54;61.66;101888.84;2081100;28;20173;-62
2021/11/20 03:08:45;;;;;;;10.53;6.70;;;;;;;11.10;61.74;101991.22;2081057;28;20618;-62
2021/11/20 03:09:46;;;;;;;7.97;6.03;;;;;;;10.85;61.77;101957.25;2080862;28;20218;-62
2021/11/20 03:10:46;;;;;;;8.53;6.00;;;;;;;11.03;61.93;101985.72;2080990;28;20172;-62
2021/11/20 03:11:47;;;;;;;10.73;6.33;;;;;;;11.09;62.02;101995.22;2080377;28;20960;-62
2021/11/20 03:12:48;;;;;;;7.97;5.83;;;;;;;11.07;62.08;101995.59;2080970;28;20172;-62
2021/11/20 03:13:52;;;;;;;7.40;5.63;;;;;;;10.66;62.12;101952.97;2080968;28;20298;-62
2021/11/20 03:14:53;;;;;;;8.63;6.00;;;;;;;11.04;62.35;101996.44;2080911;28;20165;-62
2021/11/20 03:15:53;;;;;;;9.27;6.10;;;;;;;11.08;62.25;101993.63;2077097;28;20426;-62
2021/11/20 03:16:57;;;;;;;6.83;5.50;;;;;;;11.04;62.64;101998.41;2072872;28;20167;-61
2021/11/20 03:17:57;;;;;;;7.00;5.27;;;;;;;10.16;62.82;101873.94;2072697;28;20204;-62
2021/11/20 03:18:58;;;;;;;8.10;5.87;;;;;;;10.98;62.84;102002.78;2072743;28;20428;-62
2021/11/20 03:19:59;;;;;;;7.47;5.27;;;;;;;10.90;62.83;101976.25;2072609;28;20178;-62
2021/11/20 03:20:59;;;;;;;6.67;5.10;;;;;;;11.02;62.49;102003.56;2087486;28;20184;-62
2021/11/20 03:22:22;;;;;;;7.47;5.00;;;;;;;10.99;62.80;101996.84;2088474;28;20183;-62
2021/11/20 03:23:27;;;;;;;7.00;4.87;;;;;;;10.99;62.84;102002.38;2080971;28;20750;-62
2021/11/20 03:24:29;;;;;;;7.07;4.97;;;;;;;10.97;62.84;102001.97;2080478;28;20461;-62
2021/11/20 03:25:31;;;;;;;7.43;4.97;;;;;;;10.89;62.98;101989.34;2079871;28;20496;-62
2021/11/20 03:26:32;;;;;;;6.20;4.63;;;;;;;10.60;63.30;101943.47;2080817;28;20433;-62
2021/11/20 03:27:33;;;;;;;7.13;5.03;;;;;;;10.98;63.21;102002.78;2080911;28;20457;-62
2021/11/20 03:28:34;;;;;;;5.27;4.63;;;;;;;10.94;62.89;101990.91;2080686;28;20420;-62
2021/11/20 03:29:35;;;;;;;6.60;4.93;;;;;;;10.90;62.87;101968.72;2076211;28;20460;-62
2021/11/20 03:30:36;;;;;;;5.80;4.70;;;;;;;11.04;62.87;101985.31;2072612;28;20181;-62
2021/11/20 03:31:38;;;;;;;6.30;5.10;;;;;;;11.06;62.83;102007.13;2072709;28;20180;-62
2021/11/20 03:32:38;;;;;;;7.47;5.20;;;;;;;11.05;62.87;101995.22;2072625;28;20447;-62
2021/11/20 03:33:39;;;;;;;8.17;5.13;;;;;;;11.08;62.77;102005.53;2072221;28;20460;-62
2021/11/20 03:34:41;;;;;;;8.60;4.77;;;;;;;11.09;62.77;102004.34;2072253;28;20672;-62
2021/11/20 03:35:42;;;;;;;8.97;5.50;;;;;;;11.11;62.77;101993.59;2074233;28;20550;-62
2021/11/20 03:36:42;;;;;;;8.10;5.17;;;;;;;10.75;62.91;101930.34;2080815;28;20426;-62
2021/11/20 03:37:43;;;;;;;7.17;4.93;;;;;;;11.15;62.79;101980.53;2080870;28;20450;-62
2021/11/20 03:38:45;;;;;;;6.33;5.10;;;;;;;11.15;62.61;101980.53;2079692;28;20643;-62
2021/11/20 03:39:46;;;;;;;6.80;5.10;;;;;;;11.19;62.48;101972.16;2080895;28;20408;-62
2021/11/20 03:40:46;;;;;;;7.67;5.00;;;;;;;11.12;62.60;101969.44;2081978;28;20428;-62
2021/11/20 03:41:47;;;;;;;6.20;4.37;;;;;;;11.12;62.63;101969.44;2082584;28;20171;-62
2021/11/20 03:42:48;;;;;;;6.63;4.67;;;;;;;11.11;62.66;101971.41;2080580;28;20266;-62
2021/11/20 03:43:49;;;;;;;6.10;4.70;;;;;;;11.07;62.79;101956.75;2074351;28;20615;-62
2021/11/20 03:44:49;;;;;;;6.17;4.90;;;;;;;11.08;62.64;101963.13;2073849;28;20177;-62
2021/11/20 03:45:50;;;;;;;6.03;4.93;;;;;;;11.06;62.73;101963.50;2074059;28;20264;-62
2021/11/20 03:46:50;;;;;;;7.00;5.07;;;;;;;11.05;62.78;101958.34;2074278;28;20681;-62
2021/11/20 03:47:51;;;;;;;6.57;4.80;;;;;;;10.46;62.78;101870.69;2073992;28;20169;-62
2021/11/20 03:48:52;;;;;;;6.77;4.90;;;;;;;11.00;62.87;101953.22;2074259;28;20216;-62
2021/11/20 03:49:53;;;;;;;7.83;5.17;;;;;;;11.00;62.88;101950.47;2073986;28;20196;-62
2021/11/20 03:50:53;;;;;;;8.37;5.03;;;;;;;10.42;62.80;101862.38;2074184;28;20430;-62
2021/11/20 03:51:54;;;;;;;6.70;5.13;;;;;;;10.59;62.99;101914.19;2075527;28;20196;-62
2021/11/20 03:52:55;;;;;;;6.87;4.60;;;;;;;10.87;63.25;101961.19;2082303;28;20194;-62
2021/11/20 03:53:56;;;;;;;6.57;5.37;;;;;;;10.84;63.39;101962.03;2082232;28;20179;-62
2021/11/20 03:54:57;;;;;;;6.40;4.77;;;;;;;10.85;63.44;101954.47;2082166;28;20433;-62
2021/11/20 03:55:57;;;;;;;6.53;5.17;;;;;;;10.89;63.15;101958.03;2081938;28;20532;-62
2021/11/20 03:56:58;;;;;;;8.40;5.17;;;;;;;10.83;63.28;101949.34;2081510;28;20185;-62
2021/11/20 03:57:59;;;;;;;5.80;5.03;;;;;;;10.89;63.22;101958.84;2082472;28;20260;-62
2021/11/20 03:59:00;;;;;;;6.70;4.90;;;;;;;10.81;63.42;101959.28;2077172;28;20178;-62
2021/11/20 04:00:01;;;;;;;11.23;5.10;;;;;;;10.78;63.65;101966.41;2074156;28;20253;-62
2021/11/20 04:01:07;;;;;;;7.90;5.50;;;;;;;10.75;63.72;101960.84;2076142;28;20185;-62
2021/11/20 04:02:07;;;;;;;8.37;5.77;;;;;;;10.64;64.08;101946.25;2082237;28;20677;-62
2021/11/20 04:03:08;;;;;;;8.53;5.47;;;;;;;10.66;63.98;101961.28;2082349;28;20823;-62
2021/11/20 04:04:09;;;;;;;9.10;5.53;;;;;;;10.59;64.20;101952.19;2081922;28;20172;-61
2021/11/20 04:05:10;;;;;;;8.03;5.40;;;;;;;10.69;63.73;101963.25;2082495;28;20450;-62
2021/11/20 04:06:13;;;;;;;8.37;5.67;;;;;;;10.72;63.85;101967.22;2073603;28;20188;-61
2021/11/20 04:07:14;;;;;;;7.87;5.53;;;;;;;10.44;64.13;101948.69;2074233;28;20452;-62
2021/11/20 04:08:15;;;;;;;6.97;5.07;;;;;;;10.51;64.81;101978.38;2074067;28;20905;-62
2021/11/20 04:09:16;;;;;;;7.13;5.70;;;;;;;10.44;64.79;101979.16;2081560;28;20176;-61
2021/11/20 04:10:19;;;;;;;6.43;5.77;;;;;;;10.34;65.65;101970.84;2085805;28;20592;-61
2021/11/20 04:11:26;;;;;;;7.77;6.27;;;;;;;10.30;65.58;101975.63;2082314;28;20314;-61
2021/11/20 04:12:27;;;;;;;7.63;6.33;;;;;;;10.27;65.66;101968.91;2082197;28;20418;-62
2021/11/20 04:13:28;;;;;;;7.50;6.17;;;;;;;10.20;65.96;101976.44;2082301;28;20938;-61
2021/11/20 04:14:28;;;;;;;9.10;6.77;;;;;;;9.99;66.10;101945.94;2081185;28;20685;-62
2021/11/20 04:15:29;;;;;;;9.33;6.90;;;;;;;10.09;66.31;101965.34;2082079;28;20266;-61
2021/11/20 04:16:31;;;;;;;8.83;6.97;;;;;;;10.08;66.33;101972.09;2082178;28;20180;-61
2021/11/20 04:17:32;;;;;;;8.03;6.43;;;;;;;10.04;66.56;101978.81;2082351;28;20235;-61
2021/11/20 04:18:33;;;;;;;7.90;6.03;;;;;;;10.08;66.46;101968.50;2082335;28;20419;-62
2021/11/20 04:19:34;;;;;;;7.47;6.37;;;;;;;9.76;66.45;101912.31;2081342;28;20178;-62
2021/11/20 04:20:34;;;;;;;7.43;6.47;;;;;;;10.17;66.02;101966.13;2081900;28;20513;-62
2021/11/20 04:21:36;;;;;;;6.90;5.80;;;;;;;10.27;66.19;101977.22;2082252;28;20185;-61
2021/11/20 04:22:37;;;;;;;7.50;6.30;;;;;;;9.67;65.67;101873.16;2082145;28;20172;-62
2021/11/20 04:23:39;;;;;;;6.93;6.23;;;;;;;10.33;65.35;101969.28;2081354;28;20437;-62
2021/11/20 04:24:39;;;;;;;7.63;6.50;;;;;;;10.31;65.18;101968.91;2081676;28;20406;-62
2021/11/20 04:25:41;;;;;;;8.67;6.87;;;;;;;10.40;65.02;101975.59;2081943;28;20423;-62
2021/11/20 04:26:42;;;;;;;12.20;7.10;;;;;;;10.37;65.23;101976.41;2082102;28;20171;-61
2021/11/20 04:27:43;;;;;;;7.63;6.80;;;;;;;10.35;65.46;101981.53;2089770;28;20495;-61
2021/11/20 04:28:44;;;;;;;9.93;7.23;;;;;;;10.37;65.34;101981.16;2089171;28;20476;-62
2021/11/20 04:29:45;;;;;;;7.60;6.80;;;;;;;10.34;65.26;101971.66;2082187;28;20631;-62
2021/11/20 04:30:48;;;;;;;9.47;6.90;;;;;;;10.41;65.31;101981.94;2081964;28;20448;-61
2021/11/20 04:31:49;;;;;;;9.33;7.37;;;;;;;10.10;65.01;101928.16;2082172;28;20235;-61
2021/11/20 04:32:50;;;;;;;8.53;7.20;;;;;;;10.12;65.10;101933.28;2077693;28;20488;-62
2021/11/20 04:33:52;;;;;;;8.20;7.10;;;;;;;10.40;65.06;101975.59;2073991;28;20240;-61
2021/11/20 04:34:53;;;;;;;8.00;7.20;;;;;;;10.42;65.01;101980.75;2073782;28;20423;-61
2021/11/20 04:35:53;;;;;;;9.00;7.33;;;;;;;10.36;64.94;101974.81;2077046;28;20968;-62
2021/11/20 04:36:54;;;;;;;8.70;7.13;;;;;;;10.38;65.33;101969.69;2080963;28;20227;-62
2021/11/20 04:37:55;;;;;;;8.27;7.30;;;;;;;10.23;65.17;101945.94;2074082;28;20280;-62
2021/11/20 04:38:56;;;;;;;10.57;8.00;;;;;;;10.28;65.53;101967.72;2074064;28;20180;-61
2021/11/20 04:39:58;;;;;;;8.87;7.93;;;;;;;10.24;65.48;101964.16;2073999;28;20408;-61
2021/11/20 04:40:59;;;;;;;8.73;7.55;;;;;;;10.24;65.43;101964.16;2073751;28;20432;-61
2021/11/20 04:41:59;;;;;;;10.17;8.53;;;;;;;10.25;65.51;101960.19;2073965;28;20194;-61
2021/11/20 04:43:00;;;;;;;8.93;7.50;;;;;;;10.09;65.39;101947.97;2073889;28;20178;-61
2021/11/20 04:44:01;;;;;;;10.07;7.80;;;;;;;10.00;65.75;101928.16;2073540;28;20258;-61
2021/11/20 04:45:04;;;;;;;8.80;7.63;;;;;;;10.13;65.60;101955.06;2073849;28;20181;-62
2021/11/20 04:46:04;;;;;;;9.07;7.57;;;;;;;10.20;65.69;101960.59;2075007;28;20576;-62
2021/11/20 04:47:05;;;;;;;9.43;7.20;;;;;;;10.24;65.31;101957.84;2082003;28;20441;-62
2021/11/20 04:48:08;;;;;;;10.33;7.50;;;;;;;10.25;65.37;101973.25;2082137;28;20554;-62
2021/11/20 04:49:08;;;;;;;9.87;7.47;;;;;;;10.21;65.42;101959.41;2081989;28;20179;-62
2021/11/20 04:50:09;;;;;;;8.27;7.37;;;;;;;10.22;65.30;101961.00;2082089;28;20514;-62
2021/11/20 04:51:10;;;;;;;10.63;8.40;;;;;;;10.26;65.40;101961.00;2074631;28;20174;-62
2021/11/20 04:52:12;;;;;;;9.70;7.10;;;;;;;10.27;65.26;101957.03;2073896;28;20408;-62
2021/11/20 04:53:13;;;;;;;8.43;7.23;;;;;;;10.31;65.05;101952.28;2073863;28;20572;-62
2021/11/20 04:54:14;;;;;;;8.60;6.87;;;;;;;10.30;65.21;101948.69;2073398;28;20428;-61
2021/11/20 04:55:16;;;;;;;9.00;6.83;;;;;;;10.28;65.27;101951.09;2076563;28;21061;-62
2021/11/20 04:56:19;;;;;;;9.93;7.37;;;;;;;9.94;65.08;101888.97;2081577;28;20253;-62
2021/11/20 04:57:20;;;;;;;10.00;6.97;;;;;;;10.29;64.91;101944.34;2082134;28;20453;-62